createdAt,value
2018-01-15T00:00:43.986Z,1011.99
2018-01-15T00:01:43.979Z,1012.00
2018-01-15T00:02:43.981Z,1011.98
2018-01-15T00:03:43.979Z,1011.97
2018-01-15T00:04:43.982Z,1011.94
2018-01-15T00:05:43.978Z,1011.97
2018-01-15T00:06:43.981Z,1011.98
2018-01-15T00:07:43.982Z,1011.95
2018-01-15T00:08:43.977Z,1011.91
2018-01-15T00:09:43.981Z,1011.88
2018-01-15T00:10:43.974Z,1011.85
2018-01-15T00:11:43.984Z,1011.83
2018-01-15T00:12:43.975Z,1011.79
2018-01-15T00:13:43.981Z,1011.76
2018-01-15T00:14:43.982Z,1011.73
2018-01-15T00:15:43.975Z,1011.74
2018-01-15T00:16:43.975Z,1011.76
2018-01-15T00:17:43.976Z,1011.73
2018-01-15T00:18:43.976Z,1011.76
2018-01-15T00:19:43.971Z,1011.78
2018-01-15T00:20:43.972Z,1011.76
2018-01-15T00:21:43.976Z,1011.73
2018-01-15T00:22:43.970Z,1011.69
2018-01-15T00:23:43.971Z,1011.69
2018-01-15T00:24:43.976Z,1011.66
2018-01-15T00:25:43.975Z,1011.64
2018-01-15T00:26:43.975Z,1011.64
2018-01-15T00:27:43.971Z,1011.64
2018-01-15T00:28:43.975Z,1011.57
2018-01-15T00:29:43.970Z,1011.59
2018-01-15T00:30:44.019Z,1011.59
2018-01-15T00:31:43.970Z,1011.58
2018-01-15T00:32:43.969Z,1011.57
2018-01-15T00:33:44.022Z,1011.54
2018-01-15T00:34:43.969Z,1011.51
2018-01-15T00:35:43.971Z,1011.51
2018-01-15T00:36:43.968Z,1011.47
2018-01-15T00:37:43.972Z,1011.47
2018-01-15T00:38:43.971Z,1011.43
2018-01-15T00:39:43.967Z,1011.38
2018-01-15T00:40:43.968Z,1011.38
2018-01-15T00:41:43.966Z,1011.34
2018-01-15T00:42:43.970Z,1011.36
2018-01-15T00:43:43.968Z,1011.35
2018-01-15T00:44:43.966Z,1011.33
2018-01-15T00:45:43.969Z,1011.32
2018-01-15T00:46:43.964Z,1011.35
2018-01-15T00:47:43.967Z,1011.36
2018-01-15T00:48:43.960Z,1011.33
2018-01-15T00:49:43.968Z,1011.33
2018-01-15T00:50:43.969Z,1011.32
2018-01-15T00:51:43.958Z,1011.28
2018-01-15T00:52:43.960Z,1011.27
2018-01-15T00:53:43.969Z,1011.25
2018-01-15T00:54:43.959Z,1011.25
2018-01-15T00:55:43.962Z,1011.29
2018-01-15T00:56:43.960Z,1011.25
2018-01-15T00:57:43.964Z,1011.29
2018-01-15T00:58:43.960Z,1011.28
2018-01-15T00:59:43.957Z,1011.31
2018-01-15T01:00:43.961Z,1011.32
2018-01-15T01:01:43.965Z,1011.29
2018-01-15T01:02:43.964Z,1011.28
2018-01-15T01:03:43.959Z,1011.28
2018-01-15T01:04:43.965Z,1011.24
2018-01-15T01:05:43.958Z,1011.20
2018-01-15T01:06:43.960Z,1011.16
2018-01-15T01:07:43.965Z,1011.17
2018-01-15T01:08:43.960Z,1011.18
2018-01-15T01:09:43.956Z,1011.13
2018-01-15T01:10:43.961Z,1011.13
2018-01-15T01:11:43.964Z,1011.13
2018-01-15T01:12:43.957Z,1011.17
2018-01-15T01:13:43.957Z,1011.15
2018-01-15T01:14:43.957Z,1011.12
2018-01-15T01:15:43.959Z,1011.13
2018-01-15T01:16:43.960Z,1011.14
2018-01-15T01:17:43.960Z,1011.16
2018-01-15T01:18:43.966Z,1011.13
2018-01-15T01:19:43.955Z,1011.16
2018-01-15T01:20:43.955Z,1011.08
2018-01-15T01:21:43.960Z,1011.03
2018-01-15T01:22:43.956Z,1011.00
2018-01-15T01:23:43.954Z,1010.99
2018-01-15T01:24:43.954Z,1010.94
2018-01-15T01:25:43.956Z,1010.94
2018-01-15T01:26:43.957Z,1010.89
2018-01-15T01:27:43.957Z,1010.85
2018-01-15T01:28:43.951Z,1010.88
2018-01-15T01:29:43.956Z,1010.82
2018-01-15T01:30:43.951Z,1010.85
2018-01-15T01:31:43.957Z,1010.80
2018-01-15T01:32:43.952Z,1010.81
2018-01-15T01:33:43.956Z,1010.81
2018-01-15T01:34:43.956Z,1010.80
2018-01-15T01:35:43.949Z,1010.81
2018-01-15T01:36:43.955Z,1010.81
2018-01-15T01:37:43.950Z,1010.86
2018-01-15T01:38:43.949Z,1010.85
2018-01-15T01:39:43.951Z,1010.86
2018-01-15T01:40:43.954Z,1010.86
2018-01-15T01:41:43.951Z,1010.86
2018-01-15T01:42:43.954Z,1010.83
2018-01-15T01:43:43.949Z,1010.80
2018-01-15T01:44:43.953Z,1010.79
2018-01-15T01:45:43.948Z,1010.75
2018-01-15T01:46:43.953Z,1010.70
2018-01-15T01:47:43.949Z,1010.70
2018-01-15T01:48:43.953Z,1010.71
2018-01-15T01:49:43.947Z,1010.68
2018-01-15T01:50:43.949Z,1010.68
2018-01-15T01:51:43.950Z,1010.70
2018-01-15T01:52:43.952Z,1010.73
2018-01-15T01:53:43.949Z,1010.74
2018-01-15T01:54:43.949Z,1010.67
2018-01-15T01:55:43.945Z,1010.68
2018-01-15T01:56:43.949Z,1010.66
2018-01-15T01:57:43.946Z,1010.65
2018-01-15T01:58:43.953Z,1010.60
2018-01-15T01:59:43.951Z,1010.60
2018-01-15T02:00:43.948Z,1010.59
2018-01-15T02:01:43.945Z,1010.57
2018-01-15T02:02:43.943Z,1010.53
2018-01-15T02:03:43.948Z,1010.50
2018-01-15T02:04:43.945Z,1010.45
2018-01-15T02:05:43.946Z,1010.44
2018-01-15T02:06:43.943Z,1010.43
2018-01-15T02:07:43.946Z,1010.41
2018-01-15T02:08:43.960Z,1010.40
2018-01-15T02:09:43.945Z,1010.36
2018-01-15T02:10:43.943Z,1010.36
2018-01-15T02:11:43.942Z,1010.37
2018-01-15T02:12:43.959Z,1010.36
2018-01-15T02:13:43.942Z,1010.34
2018-01-15T02:14:43.942Z,1010.36
2018-01-15T02:15:43.944Z,1010.32
2018-01-15T02:16:43.946Z,1010.30
2018-01-15T02:17:43.944Z,1010.29
2018-01-15T02:18:43.966Z,1010.25
2018-01-15T02:19:43.945Z,1010.26
2018-01-15T02:20:43.943Z,1010.27
2018-01-15T02:21:43.944Z,1010.23
2018-01-15T02:22:43.938Z,1010.22
2018-01-15T02:23:43.949Z,1010.25
2018-01-15T02:24:43.959Z,1010.21
2018-01-15T02:25:43.944Z,1010.21
2018-01-15T02:26:43.957Z,1010.23
2018-01-15T02:27:43.940Z,1010.20
2018-01-15T02:28:43.941Z,1010.20
2018-01-15T02:29:43.945Z,1010.17
2018-01-15T02:30:43.936Z,1010.19
2018-01-15T02:31:43.943Z,1010.19
2018-01-15T02:32:43.940Z,1010.20
2018-01-15T02:33:43.946Z,1010.18
2018-01-15T02:34:43.938Z,1010.15
2018-01-15T02:35:43.942Z,1010.15
2018-01-15T02:36:43.940Z,1010.11
2018-01-15T02:37:43.942Z,1010.07
2018-01-15T02:38:43.946Z,1010.02
2018-01-15T02:39:43.942Z,1010.02
2018-01-15T02:40:43.941Z,1009.99
2018-01-15T02:41:43.942Z,1010.01
2018-01-15T02:42:43.946Z,1009.96
2018-01-15T02:43:43.936Z,1009.96
2018-01-15T02:44:43.942Z,1009.98
2018-01-15T02:45:43.937Z,1009.98
2018-01-15T02:46:43.965Z,1009.93
2018-01-15T02:47:43.941Z,1009.95
2018-01-15T02:48:43.942Z,1009.95
2018-01-15T02:49:43.943Z,1009.91
2018-01-15T02:50:43.936Z,1009.90
2018-01-15T02:51:43.944Z,1009.90
2018-01-15T02:52:43.944Z,1009.91
2018-01-15T02:53:43.939Z,1009.91
2018-01-15T02:54:43.936Z,1009.84
2018-01-15T02:55:43.951Z,1009.86
2018-01-15T02:56:43.948Z,1009.86
2018-01-15T02:57:43.943Z,1009.83
2018-01-15T02:58:43.943Z,1009.82
2018-01-15T02:59:43.951Z,1009.84
2018-01-15T03:00:43.942Z,1009.85
2018-01-15T03:01:43.945Z,1009.82
2018-01-15T03:02:43.944Z,1009.80
2018-01-15T03:03:43.943Z,1009.78
2018-01-15T03:04:43.945Z,1009.75
2018-01-15T03:05:43.952Z,1009.76
2018-01-15T03:06:43.948Z,1009.72
2018-01-15T03:07:43.941Z,1009.71
2018-01-15T03:08:43.951Z,1009.74
2018-01-15T03:09:43.951Z,1009.66
2018-01-15T03:10:43.944Z,1009.65
2018-01-15T03:11:43.948Z,1009.64
2018-01-15T03:12:43.957Z,1009.63
2018-01-15T03:13:43.960Z,1009.56
2018-01-15T03:14:43.945Z,1009.55
2018-01-15T03:15:43.949Z,1009.57
2018-01-15T03:16:43.949Z,1009.49
2018-01-15T03:17:43.946Z,1009.45
2018-01-15T03:18:43.952Z,1009.45
2018-01-15T03:19:43.955Z,1009.43
2018-01-15T03:20:43.946Z,1009.44
2018-01-15T03:21:43.954Z,1009.43
2018-01-15T03:22:43.953Z,1009.41
2018-01-15T03:23:43.952Z,1009.34
2018-01-15T03:24:43.947Z,1009.31
2018-01-15T03:25:43.949Z,1009.31
2018-01-15T03:26:43.951Z,1009.27
2018-01-15T03:27:43.950Z,1009.27
2018-01-15T03:28:43.949Z,1009.27
2018-01-15T03:29:43.968Z,1009.23
2018-01-15T03:30:43.950Z,1009.20
2018-01-15T03:31:43.954Z,1009.20
2018-01-15T03:32:43.954Z,1009.19
2018-01-15T03:33:43.970Z,1009.15
2018-01-15T03:34:43.958Z,1009.13
2018-01-15T03:35:43.952Z,1009.16
2018-01-15T03:36:43.956Z,1009.13
2018-01-15T03:37:43.953Z,1009.13
2018-01-15T03:38:43.966Z,1009.09
2018-01-15T03:39:43.951Z,1009.06
2018-01-15T03:40:43.973Z,1008.97
2018-01-15T03:41:43.955Z,1008.99
2018-01-15T03:42:43.961Z,1008.92
2018-01-15T03:43:43.957Z,1008.94
2018-01-15T03:44:43.957Z,1008.90
2018-01-15T03:45:43.959Z,1008.91
2018-01-15T03:46:43.962Z,1008.90
2018-01-15T03:47:43.958Z,1008.90
2018-01-15T03:48:43.964Z,1008.92
2018-01-15T03:49:43.963Z,1008.91
2018-01-15T03:50:43.966Z,1008.94
2018-01-15T03:51:44.641Z,1008.92
2018-01-15T03:52:43.966Z,1008.90
2018-01-15T03:53:43.965Z,1008.88
2018-01-15T03:54:43.964Z,1008.88
2018-01-15T03:55:43.965Z,1008.81
2018-01-15T03:56:43.967Z,1008.78
2018-01-15T03:57:43.964Z,1008.74
2018-01-15T03:58:43.980Z,1008.71
2018-01-15T03:59:43.968Z,1008.71
2018-01-15T04:00:43.968Z,1008.71
2018-01-15T04:01:43.972Z,1008.64
2018-01-15T04:02:43.973Z,1008.62
2018-01-15T04:03:43.968Z,1008.59
2018-01-15T04:04:43.979Z,1008.58
2018-01-15T04:05:43.969Z,1008.55
2018-01-15T04:06:43.972Z,1008.52
2018-01-15T04:07:43.973Z,1008.49
2018-01-15T04:08:43.969Z,1008.43
2018-01-15T04:09:43.979Z,1008.41
2018-01-15T04:10:43.972Z,1008.39
2018-01-15T04:11:43.976Z,1008.35
2018-01-15T04:12:43.972Z,1008.39
2018-01-15T04:13:43.971Z,1008.37
2018-01-15T04:14:43.972Z,1008.35
2018-01-15T04:15:43.973Z,1008.32
2018-01-15T04:16:43.974Z,1008.31
2018-01-15T04:17:43.975Z,1008.32
2018-01-15T04:18:43.973Z,1008.29
2018-01-15T04:19:43.981Z,1008.26
2018-01-15T04:20:43.972Z,1008.27
2018-01-15T04:21:44.000Z,1008.25
2018-01-15T04:22:43.975Z,1008.23
2018-01-15T04:23:43.984Z,1008.23
2018-01-15T04:24:43.977Z,1008.19
2018-01-15T04:25:43.976Z,1008.14
2018-01-15T04:26:43.980Z,1008.13
2018-01-15T04:27:43.980Z,1008.10
2018-01-15T04:28:43.993Z,1008.10
2018-01-15T04:29:43.975Z,1008.06
2018-01-15T04:30:43.979Z,1008.08
2018-01-15T04:31:43.980Z,1008.06
2018-01-15T04:32:43.977Z,1008.01
2018-01-15T04:33:43.977Z,1008.03
2018-01-15T04:34:43.979Z,1008.03
2018-01-15T04:35:43.978Z,1008.02
2018-01-15T04:36:43.981Z,1008.03
2018-01-15T04:37:43.980Z,1007.99
2018-01-15T04:38:43.975Z,1007.97
2018-01-15T04:39:43.976Z,1007.96
2018-01-15T04:40:43.986Z,1007.93
2018-01-15T04:41:43.978Z,1007.89
2018-01-15T04:42:43.980Z,1007.91
2018-01-15T04:43:43.978Z,1007.88
2018-01-15T04:44:43.984Z,1007.89
2018-01-15T04:45:43.983Z,1007.88
2018-01-15T04:46:43.985Z,1007.87
2018-01-15T04:47:43.978Z,1007.82
2018-01-15T04:48:43.982Z,1007.87
2018-01-15T04:49:43.981Z,1007.82
2018-01-15T04:50:43.982Z,1007.81
2018-01-15T04:51:43.977Z,1007.78
2018-01-15T04:52:43.983Z,1007.77
2018-01-15T04:53:43.996Z,1007.76
2018-01-15T04:54:43.983Z,1007.72
2018-01-15T04:55:43.983Z,1007.68
2018-01-15T04:56:43.979Z,1007.63
2018-01-15T04:57:43.981Z,1007.63
2018-01-15T04:58:43.984Z,1007.62
2018-01-15T04:59:43.986Z,1007.62
2018-01-15T05:00:43.984Z,1007.59
2018-01-15T05:01:43.988Z,1007.59
2018-01-15T05:02:43.987Z,1007.58
2018-01-15T05:03:43.978Z,1007.56
2018-01-15T05:04:43.983Z,1007.58
2018-01-15T05:05:43.986Z,1007.53
2018-01-15T05:06:43.988Z,1007.55
2018-01-15T05:07:43.982Z,1007.53
2018-01-15T05:08:43.983Z,1007.48
2018-01-15T05:09:43.991Z,1007.47
2018-01-15T05:10:43.985Z,1007.47
2018-01-15T05:11:43.989Z,1007.47
2018-01-15T05:12:43.990Z,1007.48
2018-01-15T05:13:43.993Z,1007.44
2018-01-15T05:14:43.984Z,1007.44
2018-01-15T05:15:43.986Z,1007.45
2018-01-15T05:16:43.991Z,1007.41
2018-01-15T05:17:43.987Z,1007.40
2018-01-15T05:18:43.996Z,1007.38
2018-01-15T05:19:43.982Z,1007.37
2018-01-15T05:20:43.986Z,1007.37
2018-01-15T05:21:43.991Z,1007.35
2018-01-15T05:22:43.992Z,1007.31
2018-01-15T05:23:43.990Z,1007.17
2018-01-15T05:24:43.985Z,1007.20
2018-01-15T05:25:44.004Z,1007.20
2018-01-15T05:26:43.989Z,1007.16
2018-01-15T05:27:43.996Z,1007.18
2018-01-15T05:28:43.993Z,1007.15
2018-01-15T05:29:43.995Z,1007.15
2018-01-15T05:30:43.992Z,1007.11
2018-01-15T05:31:43.994Z,1007.10
2018-01-15T05:32:44.005Z,1007.14
2018-01-15T05:33:43.992Z,1007.08
2018-01-15T05:34:43.999Z,1007.10
2018-01-15T05:35:43.997Z,1007.06
2018-01-15T05:36:43.994Z,1007.07
2018-01-15T05:37:43.998Z,1007.05
2018-01-15T05:38:43.994Z,1007.03
2018-01-15T05:39:43.997Z,1006.98
2018-01-15T05:40:43.999Z,1006.93
2018-01-15T05:41:44.012Z,1006.99
2018-01-15T05:42:44.002Z,1006.94
2018-01-15T05:43:44.005Z,1006.95
2018-01-15T05:44:44.002Z,1006.95
2018-01-15T05:45:44.005Z,1006.97
2018-01-15T05:46:44.000Z,1006.92
2018-01-15T05:47:43.997Z,1006.93
2018-01-15T05:48:44.005Z,1006.88
2018-01-15T05:49:44.003Z,1006.87
2018-01-15T05:50:44.008Z,1006.86
2018-01-15T05:51:44.006Z,1006.85
2018-01-15T05:52:44.002Z,1006.81
2018-01-15T05:53:44.006Z,1006.80
2018-01-15T05:54:44.005Z,1006.81
2018-01-15T05:55:44.007Z,1006.81
2018-01-15T05:56:44.003Z,1006.81
2018-01-15T05:57:44.002Z,1006.80
2018-01-15T05:58:44.011Z,1006.79
2018-01-15T05:59:44.672Z,1006.73
2018-01-15T06:00:44.008Z,1006.72
2018-01-15T06:01:44.035Z,1006.70
2018-01-15T06:02:44.007Z,1006.73
2018-01-15T06:03:44.007Z,1006.67
2018-01-15T06:04:44.013Z,1006.68
2018-01-15T06:05:44.010Z,1006.68
2018-01-15T06:06:44.009Z,1006.70
2018-01-15T06:07:44.010Z,1006.63
2018-01-15T06:08:44.016Z,1006.67
2018-01-15T06:09:44.020Z,1006.65
2018-01-15T06:10:44.013Z,1006.61
2018-01-15T06:11:44.012Z,1006.56
2018-01-15T06:12:44.017Z,1006.58
2018-01-15T06:13:44.018Z,1006.61
2018-01-15T06:14:44.017Z,1006.55
2018-01-15T06:15:44.022Z,1006.55
2018-01-15T06:16:44.014Z,1006.54
2018-01-15T06:17:44.025Z,1006.50
2018-01-15T06:18:44.029Z,1006.51
2018-01-15T06:19:44.027Z,1006.42
2018-01-15T06:20:44.020Z,1006.39
2018-01-15T06:21:44.034Z,1006.42
2018-01-15T06:22:44.020Z,1006.40
2018-01-15T06:23:44.025Z,1006.40
2018-01-15T06:24:44.027Z,1006.34
2018-01-15T06:25:44.030Z,1006.36
2018-01-15T06:26:44.028Z,1006.37
2018-01-15T06:27:44.028Z,1006.33
2018-01-15T06:28:44.028Z,1006.31
2018-01-15T06:29:44.031Z,1006.32
2018-01-15T06:30:44.032Z,1006.31
2018-01-15T06:31:44.038Z,1006.33
2018-01-15T06:32:44.034Z,1006.29
2018-01-15T06:33:44.032Z,1006.26
2018-01-15T06:34:44.035Z,1006.28
2018-01-15T06:35:44.033Z,1006.26
2018-01-15T06:36:44.037Z,1006.25
2018-01-15T06:37:44.036Z,1006.21
2018-01-15T06:38:44.040Z,1006.18
2018-01-15T06:39:44.037Z,1006.17
2018-01-15T06:40:44.041Z,1006.14
2018-01-15T06:41:44.037Z,1006.16
2018-01-15T06:42:44.042Z,1006.09
2018-01-15T06:43:44.059Z,1006.12
2018-01-15T06:44:44.052Z,1006.09
2018-01-15T06:45:44.040Z,1006.08
2018-01-15T06:46:44.048Z,1006.10
2018-01-15T06:47:44.048Z,1006.05
2018-01-15T06:48:44.042Z,1006.00
2018-01-15T06:49:44.094Z,1005.97
2018-01-15T06:50:44.052Z,1005.94
2018-01-15T06:51:44.075Z,1005.98
2018-01-15T06:52:44.058Z,1005.96
2018-01-15T06:53:44.052Z,1005.97
2018-01-15T06:54:44.056Z,1005.95
2018-01-15T06:55:44.061Z,1005.95
2018-01-15T06:56:44.055Z,1005.90
2018-01-15T06:57:44.056Z,1005.91
2018-01-15T06:58:44.060Z,1005.92
2018-01-15T06:59:44.060Z,1005.90
2018-01-15T07:00:44.054Z,1005.91
2018-01-15T07:01:44.058Z,1005.88
2018-01-15T07:02:44.073Z,1005.82
2018-01-15T07:03:44.063Z,1005.85
2018-01-15T07:04:44.075Z,1005.84
2018-01-15T07:05:44.088Z,1005.84
2018-01-15T07:06:44.062Z,1005.77
2018-01-15T07:07:44.066Z,1005.79
2018-01-15T07:08:44.072Z,1005.69
2018-01-15T07:09:44.073Z,1005.71
2018-01-15T07:10:44.069Z,1005.65
2018-01-15T07:11:44.072Z,1005.62
2018-01-15T07:12:44.074Z,1005.61
2018-01-15T07:13:44.088Z,1005.61
2018-01-15T07:14:44.074Z,1005.56
2018-01-15T07:15:44.077Z,1005.58
2018-01-15T07:16:44.081Z,1005.56
2018-01-15T07:17:44.083Z,1005.58
2018-01-15T07:18:44.078Z,1005.55
2018-01-15T07:19:44.086Z,1005.55
2018-01-15T07:20:44.080Z,1005.51
2018-01-15T07:21:44.085Z,1005.48
2018-01-15T07:22:44.087Z,1005.51
2018-01-15T07:23:44.089Z,1005.48
2018-01-15T07:24:44.087Z,1005.56
2018-01-15T07:25:44.089Z,1005.52
2018-01-15T07:26:44.090Z,1005.50
2018-01-15T07:27:44.119Z,1005.54
2018-01-15T07:28:44.089Z,1005.53
2018-01-15T07:29:44.095Z,1005.53
2018-01-15T07:30:44.087Z,1005.58
2018-01-15T07:31:44.098Z,1005.51
2018-01-15T07:32:44.101Z,1005.54
2018-01-15T07:33:44.160Z,1005.54
2018-01-15T07:34:44.096Z,1005.54
2018-01-15T07:35:44.101Z,1005.50
2018-01-15T07:36:44.100Z,1005.50
2018-01-15T07:37:44.112Z,1005.45
2018-01-15T07:38:44.102Z,1005.45
2018-01-15T07:39:44.105Z,1005.41
2018-01-15T07:40:44.104Z,1005.39
2018-01-15T07:41:44.109Z,1005.42
2018-01-15T07:42:44.107Z,1005.37
2018-01-15T07:43:44.103Z,1005.35
2018-01-15T07:44:44.110Z,1005.35
2018-01-15T07:45:44.107Z,1005.38
2018-01-15T07:46:44.114Z,1005.41
2018-01-15T07:47:44.114Z,1005.36
2018-01-15T07:48:44.114Z,1005.43
2018-01-15T07:49:44.117Z,1005.35
2018-01-15T07:50:44.138Z,1005.30
2018-01-15T07:51:44.126Z,1005.30
2018-01-15T07:52:44.127Z,1005.26
2018-01-15T07:53:44.118Z,1005.23
2018-01-15T07:54:44.149Z,1005.23
2018-01-15T07:55:44.124Z,1005.22
2018-01-15T07:56:44.128Z,1005.18
2018-01-15T07:57:44.126Z,1005.14
2018-01-15T07:58:44.129Z,1005.15
2018-01-15T07:59:44.130Z,1005.11
2018-01-15T08:00:44.126Z,1005.11
2018-01-15T08:01:44.132Z,1005.11
2018-01-15T08:02:44.141Z,1005.11
2018-01-15T08:03:44.136Z,1005.08
2018-01-15T08:04:44.129Z,1005.08
2018-01-15T08:05:44.133Z,1005.02
2018-01-15T08:06:44.136Z,1005.02
2018-01-15T08:07:44.141Z,1004.96
2018-01-15T08:08:44.142Z,1004.96
2018-01-15T08:09:44.139Z,1004.92
2018-01-15T08:10:44.144Z,1004.86
2018-01-15T08:11:44.143Z,1004.84
2018-01-15T08:12:44.143Z,1004.85
2018-01-15T08:13:44.145Z,1004.88
2018-01-15T08:14:44.148Z,1004.80
2018-01-15T08:15:44.144Z,1004.84
2018-01-15T08:16:44.154Z,1004.86
2018-01-15T08:17:44.153Z,1004.82
2018-01-15T08:18:44.152Z,1004.79
2018-01-15T08:19:44.153Z,1004.78
2018-01-15T08:20:44.156Z,1004.73
2018-01-15T08:21:44.161Z,1004.81
2018-01-15T08:22:44.156Z,1004.70
2018-01-15T08:23:44.160Z,1004.66
2018-01-15T08:24:44.164Z,1004.67
2018-01-15T08:25:44.164Z,1004.61
2018-01-15T08:26:44.163Z,1004.64
2018-01-15T08:27:44.168Z,1004.59
2018-01-15T08:28:44.166Z,1004.56
2018-01-15T08:29:44.173Z,1004.57
2018-01-15T08:30:44.187Z,1004.52
2018-01-15T08:31:44.163Z,1004.48
2018-01-15T08:32:44.202Z,1004.55
2018-01-15T08:33:44.209Z,1004.52
2018-01-15T08:34:44.175Z,1004.48
2018-01-15T08:35:44.177Z,1004.47
2018-01-15T08:36:44.179Z,1004.49
2018-01-15T08:37:44.203Z,1004.49
2018-01-15T08:38:44.181Z,1004.50
2018-01-15T08:39:44.185Z,1004.50
2018-01-15T08:40:44.184Z,1004.51
2018-01-15T08:41:44.197Z,1004.50
2018-01-15T08:42:44.187Z,1004.51
2018-01-15T08:43:44.195Z,1004.52
2018-01-15T08:44:44.194Z,1004.53
2018-01-15T08:45:44.192Z,1004.48
2018-01-15T08:46:44.197Z,1004.47
2018-01-15T08:47:44.195Z,1004.45
2018-01-15T08:48:44.201Z,1004.45
2018-01-15T08:49:44.198Z,1004.40
2018-01-15T08:50:44.204Z,1004.40
2018-01-15T08:51:44.201Z,1004.38
2018-01-15T08:52:44.212Z,1004.35
2018-01-15T08:53:44.209Z,1004.33
2018-01-15T08:54:44.209Z,1004.32
2018-01-15T08:55:44.209Z,1004.27
2018-01-15T08:56:44.215Z,1004.26
2018-01-15T08:57:44.213Z,1004.28
2018-01-15T08:58:44.217Z,1004.22
2018-01-15T08:59:44.231Z,1004.17
2018-01-15T09:00:44.236Z,1004.15
2018-01-15T09:01:44.222Z,1004.07
2018-01-15T09:02:44.222Z,1004.09
2018-01-15T09:03:44.224Z,1004.02
2018-01-15T09:04:44.238Z,1004.02
2018-01-15T09:05:44.238Z,1004.03
2018-01-15T09:06:44.224Z,1003.98
2018-01-15T09:07:44.230Z,1004.00
2018-01-15T09:08:44.230Z,1003.99
2018-01-15T09:09:44.236Z,1003.92
2018-01-15T09:10:44.240Z,1003.91
2018-01-15T09:11:44.232Z,1003.89
2018-01-15T09:12:44.243Z,1003.93
2018-01-15T09:13:44.246Z,1003.90
2018-01-15T09:14:44.242Z,1003.86
2018-01-15T09:15:44.247Z,1003.93
2018-01-15T09:16:44.246Z,1003.90
2018-01-15T09:17:44.250Z,1003.84
2018-01-15T09:18:44.250Z,1003.85
2018-01-15T09:19:44.252Z,1003.90
2018-01-15T09:20:44.257Z,1003.83
2018-01-15T09:21:44.267Z,1003.79
2018-01-15T09:22:44.257Z,1003.82
2018-01-15T09:23:44.258Z,1003.83
2018-01-15T09:24:44.264Z,1003.83
2018-01-15T09:25:44.268Z,1003.76
2018-01-15T09:26:44.267Z,1003.74
2018-01-15T09:27:44.269Z,1003.72
2018-01-15T09:28:44.275Z,1003.73
2018-01-15T09:29:44.274Z,1003.76
2018-01-15T09:30:44.279Z,1003.78
2018-01-15T09:31:44.313Z,1003.73
2018-01-15T09:32:44.279Z,1003.72
2018-01-15T09:33:44.285Z,1003.79
2018-01-15T09:34:44.287Z,1003.60
2018-01-15T09:35:44.288Z,1003.64
2018-01-15T09:36:44.293Z,1003.59
2018-01-15T09:37:44.290Z,1003.61
2018-01-15T09:38:44.294Z,1003.59
2018-01-15T09:39:44.298Z,1003.55
2018-01-15T09:40:44.303Z,1003.62
2018-01-15T09:41:44.298Z,1003.57
2018-01-15T09:42:44.304Z,1003.50
2018-01-15T09:43:44.305Z,1003.40
2018-01-15T09:44:44.307Z,1003.38
2018-01-15T09:45:44.308Z,1003.31
2018-01-15T09:46:44.305Z,1003.31
2018-01-15T09:47:44.314Z,1003.31
2018-01-15T09:48:44.316Z,1003.36
2018-01-15T09:49:44.318Z,1003.33
2018-01-15T09:50:44.327Z,1003.33
2018-01-15T09:51:44.323Z,1003.24
2018-01-15T09:52:44.324Z,1003.24
2018-01-15T09:53:44.330Z,1003.24
2018-01-15T09:54:44.329Z,1003.24
2018-01-15T09:55:44.331Z,1003.22
2018-01-15T09:56:44.338Z,1003.21
2018-01-15T09:57:44.340Z,1003.25
2018-01-15T09:58:44.336Z,1003.24
2018-01-15T09:59:44.362Z,1003.20
2018-01-15T10:00:44.352Z,1003.23
2018-01-15T10:01:44.346Z,1003.19
2018-01-15T10:02:44.358Z,1003.19
2018-01-15T10:03:44.352Z,1003.17
2018-01-15T10:04:44.358Z,1003.16
2018-01-15T10:05:44.361Z,1003.14
2018-01-15T10:06:44.363Z,1003.13
2018-01-15T10:07:44.363Z,1003.14
2018-01-15T10:08:44.369Z,1003.15
2018-01-15T10:09:44.368Z,1003.15
2018-01-15T10:10:44.373Z,1003.16
2018-01-15T10:11:44.373Z,1003.17
2018-01-15T10:12:44.377Z,1003.14
2018-01-15T10:13:44.379Z,1003.15
2018-01-15T10:14:44.388Z,1003.10
2018-01-15T10:15:44.384Z,1003.12
2018-01-15T10:16:44.391Z,1003.01
2018-01-15T10:17:44.398Z,1003.05
2018-01-15T10:18:44.393Z,1003.02
2018-01-15T10:19:44.397Z,1002.94
2018-01-15T10:20:44.396Z,1002.95
2018-01-15T10:21:44.399Z,1002.93
2018-01-15T10:22:44.401Z,1002.92
2018-01-15T10:23:44.409Z,1002.87
2018-01-15T10:24:44.406Z,1002.88
2018-01-15T10:25:44.415Z,1002.81
2018-01-15T10:26:44.414Z,1002.82
2018-01-15T10:27:44.426Z,1002.81
2018-01-15T10:28:44.469Z,1002.80
2018-01-15T10:29:44.431Z,1002.76
2018-01-15T10:30:44.432Z,1002.75
2018-01-15T10:31:44.429Z,1002.75
2018-01-15T10:32:44.463Z,1002.70
2018-01-15T10:33:44.438Z,1002.66
2018-01-15T10:34:44.436Z,1002.69
2018-01-15T10:35:44.441Z,1002.70
2018-01-15T10:36:44.453Z,1002.58
2018-01-15T10:37:44.455Z,1002.62
2018-01-15T10:38:44.449Z,1002.52
2018-01-15T10:39:44.456Z,1002.53
2018-01-15T10:40:44.457Z,1002.48
2018-01-15T10:41:44.458Z,1002.49
2018-01-15T10:42:44.465Z,1002.43
2018-01-15T10:43:44.469Z,1002.38
2018-01-15T10:44:44.471Z,1002.40
2018-01-15T10:45:44.473Z,1002.32
2018-01-15T10:46:44.478Z,1002.34
2018-01-15T10:47:44.480Z,1002.32
2018-01-15T10:48:44.481Z,1002.25
2018-01-15T10:49:44.482Z,1002.19
2018-01-15T10:50:44.487Z,1002.22
2018-01-15T10:51:44.490Z,1002.20
2018-01-15T10:52:44.492Z,1002.11
2018-01-15T10:53:44.501Z,1002.10
2018-01-15T10:54:44.498Z,1002.07
2018-01-15T10:55:44.500Z,1002.05
2018-01-15T10:56:44.513Z,1002.00
2018-01-15T10:57:44.507Z,1001.97
2018-01-15T10:58:44.514Z,1001.93
2018-01-15T10:59:44.526Z,1001.92
2018-01-15T11:00:44.529Z,1001.91
2018-01-15T11:01:44.519Z,1001.81
2018-01-15T11:02:44.534Z,1001.82
2018-01-15T11:03:44.526Z,1001.81
2018-01-15T11:04:44.532Z,1001.73
2018-01-15T11:05:44.533Z,1001.65
2018-01-15T11:06:44.547Z,1001.69
2018-01-15T11:07:44.537Z,1001.70
2018-01-15T11:08:44.581Z,1001.61
2018-01-15T11:09:44.544Z,1001.53
2018-01-15T11:10:44.551Z,1001.54
2018-01-15T11:11:44.597Z,1001.49
2018-01-15T11:12:44.552Z,1001.48
2018-01-15T11:13:44.561Z,1001.43
2018-01-15T11:14:44.589Z,1001.42
2018-01-15T11:15:44.569Z,1001.34
2018-01-15T11:16:44.561Z,1001.33
2018-01-15T11:17:44.582Z,1001.35
2018-01-15T11:18:44.572Z,1001.27
2018-01-15T11:19:44.614Z,1001.28
2018-01-15T11:20:44.580Z,1001.26
2018-01-15T11:21:44.585Z,1001.20
2018-01-15T11:22:44.585Z,1001.25
2018-01-15T11:23:44.592Z,1001.17
2018-01-15T11:24:44.641Z,1001.18
2018-01-15T11:25:44.599Z,1001.12
2018-01-15T11:26:44.597Z,1001.03
2018-01-15T11:27:44.613Z,1001.03
2018-01-15T11:28:44.607Z,1001.04
2018-01-15T11:29:44.609Z,1000.98
2018-01-15T11:30:44.634Z,1000.95
2018-01-15T11:31:44.637Z,1000.93
2018-01-15T11:32:44.617Z,1000.89
2018-01-15T11:33:44.621Z,1000.89
2018-01-15T11:34:44.627Z,1000.80
2018-01-15T11:35:44.628Z,1000.76
2018-01-15T11:36:45.245Z,1000.67
2018-01-15T11:37:44.645Z,1000.70
2018-01-15T11:38:44.649Z,1000.66
2018-01-15T11:39:44.644Z,1000.66
2018-01-15T11:40:44.648Z,1000.54
2018-01-15T11:41:44.653Z,1000.52
2018-01-15T11:42:44.652Z,1000.50
2018-01-15T11:43:44.655Z,1000.49
2018-01-15T11:44:44.664Z,1000.41
2018-01-15T11:45:44.665Z,1000.37
2018-01-15T11:46:44.666Z,1000.39
2018-01-15T11:47:44.672Z,1000.34
2018-01-15T11:48:44.682Z,1000.29
2018-01-15T11:49:44.681Z,1000.25
2018-01-15T11:50:44.680Z,1000.17
2018-01-15T11:51:44.687Z,1000.14
2018-01-15T11:52:44.685Z,1000.05
2018-01-15T11:53:44.689Z,1000.03
2018-01-15T11:54:44.702Z,1000.06
2018-01-15T11:55:44.699Z,1000.04
2018-01-15T11:56:44.700Z,999.99
2018-01-15T11:57:44.707Z,999.91
2018-01-15T11:58:44.711Z,999.87
2018-01-15T11:59:44.716Z,999.86
2018-01-15T12:00:44.715Z,999.88
2018-01-15T12:01:44.721Z,999.82
2018-01-15T12:02:44.725Z,999.82
2018-01-15T12:03:44.734Z,999.79
2018-01-15T12:04:44.741Z,999.80
2018-01-15T12:05:44.734Z,999.84
2018-01-15T12:06:44.754Z,999.70